Time;durP1;ratioP1;P1;durP2;ratioP2;P2;SDS_P1;SDS_P2;PMS_P1;PMS_P2;Temp;Humidity;BMP_temperature;BMP_pressure;BME280_temperature;BME280_humidity;BME280_pressure;Samples;Min_cycle;Max_cycle;Signal;HPM_P1;HPM_P2
2021/11/10 00:01:52;;;;;;;0.20;0.10;;;;;;;1.73;100.00;101221.94;5022025;28;20447;-48
2021/11/10 00:04:21;;;;;;;0.20;0.10;;;;;;;1.57;100.00;101225.06;5019604;28;20452;-49
2021/11/10 00:06:49;;;;;;;0.20;0.10;;;;;;;1.61;100.00;101213.78;5023387;28;20448;-49
2021/11/10 00:09:16;;;;;;;0.30;0.20;;;;;;;1.31;100.00;101227.94;5026076;28;20522;-48
2021/11/10 00:11:43;;;;;;;0.20;0.20;;;;;;;1.55;100.00;101224.16;5023141;28;20923;-48
2021/11/10 00:14:10;;;;;;;0.20;0.10;;;;;;;1.43;100.00;101222.13;5019294;28;20498;-49
2021/11/10 00:16:37;;;;;;;0.20;0.10;;;;;;;1.57;100.00;101225.06;5022262;28;20476;-48
2021/11/10 00:19:04;;;;;;;0.30;0.20;;;;;;;1.60;100.00;101219.88;5025728;28;20502;-48
2021/11/10 00:21:31;;;;;;;0.20;0.10;;;;;;;1.29;100.00;101220.91;5023197;28;20444;-48
2021/11/10 00:23:58;;;;;;;0.30;0.20;;;;;;;1.36;100.00;101209.72;5019060;28;20518;-48
2021/11/10 00:26:25;;;;;;;0.20;0.10;;;;;;;1.61;100.00;101206.81;5021727;28;20818;-49
2021/11/10 00:28:52;;;;;;;0.20;0.10;;;;;;;1.43;100.00;101201.16;5025699;28;20831;-48
2021/11/10 00:31:19;;;;;;;0.20;0.20;;;;;;;1.47;100.00;101200.38;5017817;28;21068;-48
2021/11/10 00:33:47;;;;;;;0.20;0.10;;;;;;;1.33;100.00;101201.78;5025869;28;20459;-48
2021/11/10 00:36:15;;;;;;;0.20;0.10;;;;;;;1.32;100.00;101197.41;5024485;28;20455;-49
2021/11/10 00:38:42;;;;;;;0.20;0.10;;;;;;;1.37;100.00;101207.16;5018983;28;20464;-49
2021/11/10 00:41:09;;;;;;;0.20;0.10;;;;;;;1.40;100.00;101199.38;5020323;28;20452;-49
2021/11/10 00:43:36;;;;;;;0.20;0.10;;;;;;;1.32;100.00;101207.88;5026075;28;20515;-48
2021/11/10 00:46:03;;;;;;;0.20;0.10;;;;;;;1.11;100.00;101208.28;5024440;28;20685;-48
2021/11/10 00:48:30;;;;;;;2.43;1.27;;;;;;;1.21;100.00;101220.72;5018767;28;20558;-48
2021/11/10 00:50:57;;;;;;;0.20;0.10;;;;;;;0.86;100.00;101225.09;5019644;28;20492;-48
2021/11/10 00:53:23;;;;;;;0.20;0.10;;;;;;;1.03;100.00;101226.38;5025529;28;20480;-48
2021/11/10 00:55:50;;;;;;;0.20;0.20;;;;;;;0.99;100.00;101215.81;5025155;28;20463;-48
2021/11/10 00:58:17;;;;;;;0.20;0.10;;;;;;;1.04;100.00;101215.06;5018725;28;20484;-48
2021/11/10 01:00:45;;;;;;;0.20;0.10;;;;;;;0.91;100.00;101220.84;5019294;28;20892;-49
2021/11/10 01:03:12;;;;;;;0.20;0.10;;;;;;;1.20;100.00;101224.19;5025776;28;20452;-48
2021/11/10 01:05:40;;;;;;;0.40;0.40;;;;;;;0.89;100.00;101236.50;5025199;28;20495;-49
2021/11/10 01:08:08;;;;;;;0.20;0.20;;;;;;;0.84;100.00;101227.66;5025821;28;20861;-48
2021/11/10 01:10:36;;;;;;;0.20;0.10;;;;;;;1.01;100.00;101219.34;5025209;28;20549;-49
2021/11/10 01:13:03;;;;;;;0.20;0.20;;;;;;;1.11;100.00;101218.75;5019365;28;20459;-48
2021/11/10 01:15:34;;;;;;;0.20;0.10;;;;;;;1.25;100.00;101219.97;5018760;28;20444;-48
2021/11/10 01:18:01;;;;;;;0.20;0.20;;;;;;;1.10;100.00;101227.44;5024224;28;20476;-49
2021/11/10 01:20:28;;;;;;;0.97;0.97;;;;;;;0.99;100.00;101231.53;5025367;28;20443;-49
2021/11/10 01:22:54;;;;;;;0.20;0.10;;;;;;;0.96;100.00;101223.56;5018851;28;20940;-48
2021/11/10 01:25:25;;;;;;;0.20;0.10;;;;;;;0.75;100.00;101222.19;4997761;28;20814;-48
2021/11/10 01:27:52;;;;;;;0.20;0.20;;;;;;;0.94;100.00;101210.44;5024925;28;20883;-49
2021/11/10 01:30:20;;;;;;;0.20;0.10;;;;;;;0.80;100.00;101217.94;5022027;28;20480;-48
2021/11/10 01:32:47;;;;;;;0.20;0.10;;;;;;;0.81;100.00;101227.56;5027364;28;20517;-48
2021/11/10 01:35:14;;;;;;;0.20;0.10;;;;;;;0.89;100.00;101217.31;5022404;28;20473;-48
2021/11/10 01:37:41;;;;;;;0.20;0.10;;;;;;;0.66;100.00;101214.09;5025864;28;20585;-48
2021/11/10 01:40:09;;;;;;;0.20;0.10;;;;;;;0.71;100.00;101217.72;5028744;28;20946;-48
2021/11/10 01:42:41;;;;;;;0.20;0.20;;;;;;;0.61;100.00;101210.47;5025605;28;20451;-48
2021/11/10 01:45:09;;;;;;;0.20;0.10;;;;;;;0.83;100.00;101217.16;5022250;28;20830;-48
2021/11/10 01:47:36;;;;;;;0.20;0.10;;;;;;;0.89;100.00;101212.97;5024120;28;20504;-49
2021/11/10 01:50:05;;;;;;;0.20;0.10;;;;;;;0.88;100.00;101210.31;5028985;28;20456;-48
2021/11/10 01:52:31;;;;;;;0.20;0.20;;;;;;;0.73;100.00;101200.34;5026516;28;20836;-48
2021/11/10 01:54:58;;;;;;;1.33;1.17;;;;;;;0.79;100.00;101191.75;5022071;28;20926;-49
2021/11/10 01:57:24;;;;;;;0.20;0.10;;;;;;;0.73;100.00;101189.88;5023373;28;20503;-48
2021/11/10 02:00:19;;;;;;;0.20;0.10;;;;;;;0.57;100.00;101190.31;5028461;28;20950;-48
2021/11/10 02:02:48;;;;;;;0.20;0.10;;;;;;;0.53;100.00;101204.13;5021087;28;20505;-49
2021/11/10 02:05:15;;;;;;;0.20;0.10;;;;;;;0.57;100.00;101206.91;5024586;28;20464;-49
2021/11/10 02:07:44;;;;;;;1.13;0.93;;;;;;;0.40;100.00;101205.53;5021800;28;20472;-48
2021/11/10 02:10:14;;;;;;;0.20;0.10;;;;;;;0.40;100.00;101202.03;5025060;28;20503;-48
2021/11/10 02:12:42;;;;;;;0.20;0.10;;;;;;;0.34;100.00;101200.16;5028337;28;20503;-48
2021/11/10 02:15:12;;;;;;;0.20;0.10;;;;;;;0.36;100.00;101198.47;5025843;28;20451;-48
2021/11/10 02:17:39;;;;;;;0.20;0.10;;;;;;;0.38;100.00;101181.09;5003310;28;20472;-48
2021/11/10 02:20:09;;;;;;;0.20;0.10;;;;;;;1.06;100.00;101170.59;5026474;28;20452;-49
2021/11/10 02:22:37;;;;;;;0.30;0.20;;;;;;;0.72;100.00;101177.63;5021272;28;20498;-48
2021/11/10 02:25:09;;;;;;;0.20;0.10;;;;;;;0.75;100.00;101177.72;5010262;28;20480;-48
2021/11/10 02:27:37;;;;;;;0.20;0.10;;;;;;;0.86;100.00;101186.72;5009036;28;20467;-48
2021/11/10 02:30:08;;;;;;;0.20;0.10;;;;;;;0.85;100.00;101187.56;5020897;28;20449;-49
2021/11/10 02:32:35;;;;;;;0.87;0.87;;;;;;;0.79;100.00;101179.53;5026098;28;20495;-48
2021/11/10 02:35:02;;;;;;;0.20;0.10;;;;;;;0.56;100.00;101178.97;5020901;28;20547;-49
2021/11/10 02:37:29;;;;;;;0.20;0.10;;;;;;;0.49;100.00;101189.22;5025107;28;20500;-49
2021/11/10 02:39:55;;;;;;;0.20;0.20;;;;;;;0.47;100.00;101189.19;5027964;28;20452;-48
2021/11/10 02:42:23;;;;;;;0.27;0.20;;;;;;;0.52;100.00;101184.94;5023105;28;20448;-48
2021/11/10 02:44:54;;;;;;;0.20;0.20;;;;;;;0.51;100.00;101185.78;5020894;28;20458;-48
2021/11/10 02:47:21;;;;;;;0.57;0.30;;;;;;;0.53;100.00;101185.84;5024666;28;20452;-48
2021/11/10 02:49:48;;;;;;;0.20;0.10;;;;;;;0.54;100.00;101183.25;5027329;28;20489;-49
2021/11/10 02:52:20;;;;;;;0.20;0.10;;;;;;;0.45;100.00;101180.41;5023521;28;20832;-48
2021/11/10 02:54:54;;;;;;;0.67;0.67;;;;;;;0.37;100.00;101178.44;5020424;28;20467;-49
2021/11/10 02:57:23;;;;;;;0.20;0.10;;;;;;;0.50;100.00;101175.31;5022508;28;20456;-48
2021/11/10 02:59:50;;;;;;;0.20;0.10;;;;;;;0.46;100.00;101168.22;5027479;28;20866;-48
2021/11/10 03:02:27;;;;;;;0.20;0.10;;;;;;;0.45;100.00;101162.13;5025711;28;20448;-48
2021/11/10 03:04:54;;;;;;;0.20;0.10;;;;;;;0.69;100.00;101148.78;5007584;28;20999;-48
2021/11/10 03:07:27;;;;;;;0.20;0.10;;;;;;;0.52;100.00;101145.72;5020149;28;20504;-48
2021/11/10 03:09:53;;;;;;;0.20;0.10;;;;;;;0.39;100.00;101143.63;5026266;28;20449;-49
2021/11/10 03:12:20;;;;;;;0.20;0.10;;;;;;;0.22;100.00;101132.72;5026753;28;20518;-48
2021/11/10 03:14:48;;;;;;;0.20;0.20;;;;;;;0.34;100.00;101137.41;5021614;28;20510;-48
2021/11/10 03:17:17;;;;;;;0.20;0.10;;;;;;;0.39;100.00;101135.78;5020223;28;20449;-48
2021/11/10 03:19:44;;;;;;;0.20;0.10;;;;;;;0.51;100.00;101146.56;5025486;28;20886;-48
2021/11/10 03:22:13;;;;;;;0.20;0.10;;;;;;;0.48;100.00;101149.13;5026847;28;20475;-48
2021/11/10 03:24:40;;;;;;;0.20;0.10;;;;;;;0.35;100.00;101133.94;5022407;28;20505;-49
2021/11/10 03:27:07;;;;;;;0.20;0.10;;;;;;;0.49;100.00;101114.25;5019977;28;20447;-49
2021/11/10 03:29:35;;;;;;;0.20;0.10;;;;;;;0.40;100.00;101134.94;5023543;28;20467;-48
2021/11/10 03:32:04;;;;;;;0.20;0.10;;;;;;;0.16;100.00;101124.75;5022149;28;20495;-48
2021/11/10 03:34:31;;;;;;;0.30;0.10;;;;;;;0.40;100.00;101131.44;5021683;28;20456;-48
2021/11/10 03:36:58;;;;;;;0.20;0.10;;;;;;;0.23;100.00;101134.50;5026833;28;20946;-49
2021/11/10 03:39:26;;;;;;;0.20;0.10;;;;;;;0.41;100.00;101127.97;5024230;28;20475;-48
2021/11/10 03:41:52;;;;;;;0.60;0.60;;;;;;;0.26;100.00;101118.88;5019678;28;20475;-48
2021/11/10 03:44:19;;;;;;;0.20;0.10;;;;;;;0.57;100.00;101125.81;5022370;28;20448;-48
2021/11/10 03:46:46;;;;;;;0.30;0.30;;;;;;;0.67;100.00;101129.53;5026069;28;20515;-49
2021/11/10 03:49:14;;;;;;;0.20;0.10;;;;;;;0.57;100.00;101117.09;5024249;28;20475;-48
2021/11/10 03:51:41;;;;;;;0.20;0.10;;;;;;;0.52;100.00;101124.78;5019809;28;20487;-48
2021/11/10 03:54:08;;;;;;;0.20;0.10;;;;;;;0.50;100.00;101121.25;5021680;28;20448;-48
2021/11/10 03:56:35;;;;;;;0.40;0.40;;;;;;;0.41;100.00;101117.50;5026205;28;20500;-49
2021/11/10 03:59:02;;;;;;;0.20;0.10;;;;;;;0.34;100.00;101118.22;5025040;28;20514;-48
2021/11/10 04:01:29;;;;;;;0.20;0.20;;;;;;;0.23;100.00;101121.44;5019253;28;20448;-48
2021/11/10 04:03:56;;;;;;;0.20;0.10;;;;;;;0.34;100.00;101120.84;5020968;28;20487;-48
2021/11/10 04:06:22;;;;;;;0.20;0.10;;;;;;;0.43;100.00;101119.34;5026345;28;20452;-49
2021/11/10 04:08:51;;;;;;;2.80;2.53;;;;;;;0.33;100.00;101119.06;5024930;28;20472;-48
2021/11/10 04:11:20;;;;;;;2.43;2.43;;;;;;;0.33;100.00;101132.13;5019382;28;20541;-48
2021/11/10 04:13:47;;;;;;;0.20;0.10;;;;;;;0.49;100.00;101140.41;5032621;28;20513;-49
2021/11/10 04:16:19;;;;;;;0.80;0.80;;;;;;;0.24;100.00;101135.38;5019192;28;20448;-49
2021/11/10 04:18:52;;;;;;;0.20;0.10;;;;;;;0.01;100.00;101129.56;5019029;28;20476;-49
2021/11/10 04:21:19;;;;;;;0.90;0.87;;;;;;;0.11;100.00;101130.66;5025017;28;20468;-49
2021/11/10 04:23:48;;;;;;;0.20;0.10;;;;;;;0.03;100.00;101117.41;5013475;28;20464;-49
2021/11/10 04:26:15;;;;;;;0.20;0.10;;;;;;;-0.01;100.00;101120.75;5012838;28;20456;-48
2021/11/10 04:28:42;;;;;;;0.20;0.10;;;;;;;0.03;100.00;101106.06;5025549;28;20534;-49
2021/11/10 04:31:09;;;;;;;0.20;0.10;;;;;;;0.15;100.00;101095.94;5017642;28;20970;-48
2021/11/10 04:33:35;;;;;;;0.60;0.60;;;;;;;0.10;100.00;101097.53;5025776;28;20452;-48
2021/11/10 04:36:03;;;;;;;0.20;0.10;;;;;;;0.13;100.00;101100.22;5022226;28;20505;-48
2021/11/10 04:38:30;;;;;;;0.20;0.10;;;;;;;0.25;100.00;101087.47;5018790;28;20467;-48
2021/11/10 04:40:57;;;;;;;0.63;0.63;;;;;;;0.38;100.00;101093.91;5022300;28;20932;-48
2021/11/10 04:43:24;;;;;;;0.30;0.30;;;;;;;0.34;100.00;101098.19;5025469;28;20448;-49
2021/11/10 04:48:37;;;;;;;0.20;0.10;;;;;;;0.15;100.00;101109.91;5018700;28;20497;-49
2021/11/10 04:51:08;;;;;;;0.20;0.10;;;;;;;0.21;100.00;101101.31;5019322;28;20448;-48
2021/11/10 04:53:37;;;;;;;0.20;0.10;;;;;;;0.12;100.00;101098.47;5007264;28;20450;-49
2021/11/10 04:56:05;;;;;;;0.20;0.10;;;;;;;0.21;100.00;101091.75;5019504;28;20505;-48
2021/11/10 04:58:32;;;;;;;0.20;0.20;;;;;;;0.19;100.00;101096.06;5019750;28;20507;-48
2021/11/10 05:00:59;;;;;;;0.83;0.83;;;;;;;0.03;100.00;101096.50;5022779;28;20448;-48
2021/11/10 05:03:26;;;;;;;0.20;0.10;;;;;;;0.20;100.00;101103.06;5028624;28;20459;-49
2021/11/10 05:05:52;;;;;;;0.20;0.10;;;;;;;0.10;100.00;101103.66;5029436;28;20960;-48
2021/11/10 05:08:20;;;;;;;0.20;0.10;;;;;;;0.22;100.00;101100.47;5024481;28;20471;-48
2021/11/10 05:10:47;;;;;;;0.20;0.10;;;;;;;0.15;100.00;101104.69;5022754;28;21015;-48
2021/11/10 05:13:13;;;;;;;0.20;0.10;;;;;;;0.16;100.00;101109.06;5027691;28;20520;-48
2021/11/10 05:15:40;;;;;;;0.20;0.10;;;;;;;0.27;100.00;101112.84;5029469;28;20448;-48
2021/11/10 05:18:07;;;;;;;0.20;0.10;;;;;;;0.28;100.00;101101.53;5024871;28;20471;-48
2021/11/10 05:20:33;;;;;;;0.20;0.10;;;;;;;0.26;100.00;101113.66;5022592;28;20456;-48
2021/11/10 05:23:00;;;;;;;0.20;0.10;;;;;;;0.17;100.00;101113.44;5026695;28;20449;-48
2021/11/10 05:25:26;;;;;;;0.20;0.20;;;;;;;0.21;100.00;101117.91;5028910;28;20488;-48
2021/11/10 05:27:53;;;;;;;0.20;0.10;;;;;;;0.32;100.00;101125.16;5025574;28;20541;-48
2021/11/10 05:30:20;;;;;;;0.20;0.10;;;;;;;0.38;100.00;101128.78;5022349;28;20456;-48
2021/11/10 05:32:46;;;;;;;0.20;0.10;;;;;;;0.23;100.00;101134.50;5027437;28;20786;-51
2021/11/10 05:35:13;;;;;;;0.20;0.10;;;;;;;0.36;100.00;101137.44;5022091;28;20487;-51
2021/11/10 05:37:39;;;;;;;0.30;0.10;;;;;;;0.41;100.00;101134.13;5025463;28;20832;-51
2021/11/10 05:40:07;;;;;;;0.20;0.10;;;;;;;0.34;100.00;101154.81;5028807;28;20449;-51
2021/11/10 05:42:35;;;;;;;0.20;0.10;;;;;;;0.39;100.00;101161.06;5025759;28;20936;-51
2021/11/10 05:45:03;;;;;;;0.20;0.10;;;;;;;0.24;100.00;101162.41;5022280;28;20451;-51
2021/11/10 05:47:30;;;;;;;2.33;2.20;;;;;;;0.31;100.00;101155.63;5024483;28;21063;-51
2021/11/10 05:49:56;;;;;;;0.20;0.10;;;;;;;0.32;100.00;101153.91;5028496;28;20456;-51
2021/11/10 05:52:23;;;;;;;0.20;0.10;;;;;;;0.36;100.00;101146.16;5026396;28;20527;-51
2021/11/10 05:54:50;;;;;;;0.20;0.10;;;;;;;0.21;100.00;101136.19;5021790;28;20452;-51
2021/11/10 05:57:17;;;;;;;0.20;0.20;;;;;;;0.55;100.00;101131.88;5023848;28;20475;-50
2021/11/10 05:59:44;;;;;;;0.20;0.10;;;;;;;0.74;100.00;101130.56;5028449;28;20452;-51
2021/11/10 06:02:14;;;;;;;0.20;0.10;;;;;;;0.74;100.00;101134.06;5026578;28;20447;-51
2021/11/10 06:04:43;;;;;;;0.30;0.20;;;;;;;0.94;100.00;101120.59;5021315;28;20458;-52
2021/11/10 06:07:10;;;;;;;0.20;0.10;;;;;;;0.99;100.00;101124.22;5022773;28;20507;-48
2021/11/10 06:09:36;;;;;;;0.20;0.10;;;;;;;0.57;100.00;101132.78;5028639;28;20956;-48
2021/11/10 06:12:04;;;;;;;0.20;0.10;;;;;;;0.53;100.00;101141.38;5027259;28;20490;-48
2021/11/10 06:14:31;;;;;;;0.20;0.10;;;;;;;0.53;100.00;101137.03;5021405;28;20820;-48
2021/11/10 06:16:58;;;;;;;0.20;0.10;;;;;;;0.55;100.00;101137.09;5022334;28;20942;-48
2021/11/10 06:19:26;;;;;;;0.20;0.10;;;;;;;0.40;100.00;101145.41;5027964;28;20485;-48
2021/11/10 06:21:53;;;;;;;0.20;0.10;;;;;;;0.59;100.00;101139.81;5028062;28;20447;-48
2021/11/10 06:24:20;;;;;;;1.30;1.30;;;;;;;0.73;100.00;101140.16;5017030;28;20522;-48
2021/11/10 06:26:48;;;;;;;0.30;0.20;;;;;;;0.67;100.00;101142.59;5027679;28;20999;-48
2021/11/10 06:29:15;;;;;;;0.20;0.10;;;;;;;0.66;100.00;101137.34;5021858;28;20467;-48
2021/11/10 06:31:42;;;;;;;0.20;0.10;;;;;;;0.57;100.00;101128.44;5011877;28;20485;-48
2021/11/10 06:34:09;;;;;;;0.20;0.10;;;;;;;0.57;100.00;101130.16;5022112;28;20509;-48
2021/11/10 06:36:36;;;;;;;0.20;0.10;;;;;;;0.48;100.00;101140.38;5020787;28;20479;-47
2021/11/10 06:39:03;;;;;;;2.07;1.90;;;;;;;0.50;100.00;101141.31;5026306;28;20551;-47
2021/11/10 06:41:30;;;;;;;0.20;0.10;;;;;;;0.45;100.00;101143.81;5027623;28;20451;-48
2021/11/10 06:43:57;;;;;;;2.63;2.53;;;;;;;0.45;100.00;101151.66;5022430;28;20498;-48
2021/11/10 06:46:23;;;;;;;0.20;0.10;;;;;;;0.38;100.00;101160.16;5020531;28;20453;-48
2021/11/10 06:48:50;;;;;;;0.20;0.10;;;;;;;0.34;100.00;101157.44;5026056;28;20483;-48
2021/11/10 06:51:17;;;;;;;0.20;0.10;;;;;;;0.22;100.00;101153.66;5027593;28;20503;-48
2021/11/10 06:53:44;;;;;;;0.20;0.10;;;;;;;0.29;100.00;101152.97;5007657;28;20551;-48
2021/11/10 06:56:11;;;;;;;0.20;0.10;;;;;;;0.23;100.00;101152.81;5022292;28;20536;-47
2021/11/10 06:58:39;;;;;;;0.30;0.10;;;;;;;0.23;100.00;101154.53;5021839;28;20491;-48
2021/11/10 07:01:06;;;;;;;1.07;1.07;;;;;;;0.24;100.00;101151.06;5020442;28;20476;-48
2021/11/10 07:03:33;;;;;;;0.20;0.10;;;;;;;0.27;100.00;101149.44;5024779;28;20452;-48
2021/11/10 07:06:00;;;;;;;0.20;0.10;;;;;;;0.39;100.00;101145.34;5026843;28;20467;-48
2021/11/10 07:08:27;;;;;;;0.20;0.10;;;;;;;0.45;100.00;101145.53;5023069;28;21022;-48
2021/11/10 07:10:54;;;;;;;0.20;0.10;;;;;;;0.69;100.00;101153.13;5020784;28;20482;-48
2021/11/10 07:13:21;;;;;;;0.27;0.17;;;;;;;0.68;100.00;101159.19;5023968;28;20542;-48
2021/11/10 07:15:48;;;;;;;0.20;0.13;;;;;;;0.68;100.00;101156.56;5027623;28;20511;-47
2021/11/10 07:18:15;;;;;;;0.20;0.10;;;;;;;0.66;100.00;101155.66;5024049;28;20525;-47
2021/11/10 07:20:41;;;;;;;0.20;0.10;;;;;;;0.72;100.00;101150.59;5020629;28;20875;-47
2021/11/10 07:23:08;;;;;;;0.20;0.10;;;;;;;0.75;100.00;101148.94;5023325;28;20453;-48
2021/11/10 07:25:35;;;;;;;0.30;0.20;;;;;;;0.86;100.00;101157.94;5026593;28;20449;-48
2021/11/10 07:28:02;;;;;;;0.57;0.57;;;;;;;0.85;100.00;101153.56;5024178;28;20521;-48
2021/11/10 07:30:29;;;;;;;0.20;0.10;;;;;;;0.98;100.00;101162.59;5019980;28;20486;-51
2021/11/10 07:32:55;;;;;;;0.20;0.10;;;;;;;1.02;100.00;101171.38;5024748;28;20487;-51
2021/11/10 07:35:22;;;;;;;0.20;0.20;;;;;;;1.07;100.00;101177.59;5019769;28;20506;-48
2021/11/10 07:37:49;;;;;;;0.20;0.10;;;;;;;1.08;100.00;101182.88;5022197;28;21036;-47
2021/11/10 07:40:17;;;;;;;1.70;0.60;;;;;;;1.18;100.00;101174.41;5026982;28;20495;-49
2021/11/10 07:42:44;;;;;;;0.20;0.10;;;;;;;1.17;100.00;101177.00;5024395;28;20444;-48
2021/11/10 07:45:24;;;;;;;0.40;0.40;;;;;;;1.26;100.00;101187.69;5019383;28;20987;-48
2021/11/10 07:47:53;;;;;;;0.20;0.10;;;;;;;1.42;100.00;101183.69;5019959;28;20874;-48
2021/11/10 07:50:23;;;;;;;0.20;0.10;;;;;;;1.52;100.00;101183.06;5019916;28;20501;-49
2021/11/10 07:52:50;;;;;;;0.20;0.10;;;;;;;1.66;100.00;101165.91;5019211;28;20496;-49
2021/11/10 07:55:17;;;;;;;0.20;0.20;;;;;;;1.81;100.00;101167.06;5008051;28;20789;-49
2021/11/10 07:57:45;;;;;;;0.20;0.10;;;;;;;1.72;100.00;101163.41;5019663;28;20538;-48
2021/11/10 08:00:32;;;;;;;0.20;0.10;;;;;;;1.87;100.00;101162.84;5022306;28;20547;-48
2021/11/10 08:02:59;;;;;;;0.30;0.20;;;;;;;1.94;100.00;101163.84;5025826;28;20965;-48
2021/11/10 08:05:26;;;;;;;0.20;0.10;;;;;;;2.04;100.00;101163.16;5023820;28;20452;-48
2021/11/10 08:07:53;;;;;;;0.20;0.10;;;;;;;2.14;100.00;101177.34;5019320;28;20529;-48
2021/11/10 08:10:40;;;;;;;0.20;0.10;;;;;;;2.04;100.00;101182.41;5019281;28;20445;-48
2021/11/10 08:13:06;;;;;;;0.20;0.10;;;;;;;2.17;100.00;101173.03;5025553;28;20574;-48
2021/11/10 08:15:34;;;;;;;0.27;0.17;;;;;;;2.10;100.00;101173.78;5026056;28;20925;-48
2021/11/10 08:18:02;;;;;;;0.20;0.10;;;;;;;2.11;100.00;101180.81;5019622;28;20997;-48
2021/11/10 08:20:29;;;;;;;0.20;0.10;;;;;;;2.14;100.00;101188.72;5019141;28;20475;-48
2021/11/10 08:22:57;;;;;;;0.20;0.10;;;;;;;2.22;100.00;101196.75;5025204;28;20472;-48
2021/11/10 08:25:23;;;;;;;0.20;0.10;;;;;;;2.28;100.00;101199.50;5024051;28;20475;-48
2021/11/10 08:27:51;;;;;;;0.20;0.10;;;;;;;2.42;100.00;101189.25;5021898;28;20472;-48
2021/11/10 08:30:19;;;;;;;0.20;0.10;;;;;;;2.50;100.00;101196.44;5018894;28;20934;-48
2021/11/10 08:32:47;;;;;;;0.20;0.20;;;;;;;2.53;100.00;101191.25;5024129;28;20541;-49
2021/11/10 08:35:14;;;;;;;0.30;0.20;;;;;;;2.63;100.00;101187.94;5019073;28;20509;-49
2021/11/10 08:37:41;;;;;;;0.20;0.10;;;;;;;2.36;100.00;101179.56;5022415;28;20473;-48
2021/11/10 08:40:09;;;;;;;0.20;0.10;;;;;;;2.41;100.00;101182.25;5024290;28;20452;-48
2021/11/10 08:42:38;;;;;;;0.20;0.10;;;;;;;2.42;100.00;101186.63;5022983;28;20448;-49
2021/11/10 08:45:11;;;;;;;0.20;0.20;;;;;;;2.38;100.00;101191.84;5018715;28;20452;-48
2021/11/10 08:47:44;;;;;;;0.97;0.97;;;;;;;2.54;100.00;101189.50;5020991;28;20472;-48
2021/11/10 08:50:14;;;;;;;0.20;0.10;;;;;;;2.82;100.00;101193.50;5025566;28;20449;-48
2021/11/10 08:52:42;;;;;;;0.20;0.20;;;;;;;2.80;100.00;101196.09;5025102;28;21000;-49
2021/11/10 08:55:09;;;;;;;0.20;0.20;;;;;;;2.84;100.00;101179.53;5018803;28;20451;-48
2021/11/10 08:57:40;;;;;;;0.20;0.10;;;;;;;2.93;100.00;101176.19;5018755;28;20476;-49
2021/11/10 09:00:10;;;;;;;0.20;0.20;;;;;;;2.91;100.00;101177.91;5007139;28;20451;-49
2021/11/10 09:02:36;;;;;;;0.20;0.10;;;;;;;2.97;100.00;101176.25;5018710;28;20679;-48
2021/11/10 09:05:04;;;;;;;0.20;0.10;;;;;;;3.08;100.00;101194.81;5024476;28;20448;-48
2021/11/10 09:07:31;;;;;;;0.60;0.60;;;;;;;3.21;100.00;101182.78;5024091;28;20891;-48
2021/11/10 09:09:59;;;;;;;0.20;0.10;;;;;;;3.30;100.00;101174.16;5020228;28;20474;-49
2021/11/10 09:12:27;;;;;;;0.20;0.10;;;;;;;3.29;100.00;101178.53;5018826;28;20452;-49
2021/11/10 09:14:53;;;;;;;0.20;0.10;;;;;;;3.39;100.00;101190.03;5023025;28;20531;-48
2021/11/10 09:17:20;;;;;;;0.30;0.20;;;;;;;3.54;100.00;101190.25;5025279;28;20456;-48
2021/11/10 09:19:47;;;;;;;0.23;0.20;;;;;;;3.67;100.00;101196.59;5020717;28;20448;-48
2021/11/10 09:22:14;;;;;;;0.20;0.10;;;;;;;3.75;100.00;101202.84;5018482;28;20502;-49
2021/11/10 09:24:41;;;;;;;0.23;0.20;;;;;;;3.78;100.00;101203.75;5010799;28;20476;-48
2021/11/10 09:27:07;;;;;;;0.20;0.10;;;;;;;3.97;100.00;101204.00;5014851;28;20471;-48
2021/11/10 09:29:34;;;;;;;0.20;0.10;;;;;;;4.20;100.00;101191.13;5021874;28;20942;-48
2021/11/10 09:32:02;;;;;;;0.80;0.80;;;;;;;4.00;100.00;101202.31;5020634;28;20538;-48
2021/11/10 09:34:28;;;;;;;0.40;0.40;;;;;;;4.17;100.00;101197.25;5021139;28;20534;-48
2021/11/10 09:36:56;;;;;;;0.20;0.20;;;;;;;4.38;100.00;101199.22;5024940;28;20507;-48
2021/11/10 09:39:24;;;;;;;0.50;0.50;;;;;;;4.88;100.00;101212.94;5022280;28;20471;-48
2021/11/10 09:41:53;;;;;;;0.30;0.20;;;;;;;4.54;100.00;101216.09;5018162;28;20949;-48
2021/11/10 09:44:22;;;;;;;0.30;0.20;;;;;;;4.65;100.00;101196.00;5020151;28;20522;-48
2021/11/10 09:46:50;;;;;;;0.30;0.20;;;;;;;4.77;100.00;101201.41;5028042;28;20523;-48
2021/11/10 09:49:17;;;;;;;0.97;0.97;;;;;;;4.95;100.00;101187.53;5027452;28;20984;-49
2021/11/10 09:51:46;;;;;;;0.30;0.20;;;;;;;4.91;100.00;101193.63;5021486;28;20483;-48
2021/11/10 09:54:13;;;;;;;1.17;0.77;;;;;;;4.88;100.00;101201.50;5022653;28;20557;-48
2021/11/10 09:56:42;;;;;;;0.30;0.10;;;;;;;4.95;100.00;101196.34;5028588;28;20878;-49
2021/11/10 09:59:09;;;;;;;0.27;0.17;;;;;;;5.05;100.00;101174.44;5028628;28;20475;-50
2021/11/10 10:01:38;;;;;;;0.30;0.20;;;;;;;5.08;100.00;101178.88;5021971;28;20451;-51
2021/11/10 10:04:07;;;;;;;0.30;0.20;;;;;;;5.35;100.00;101194.03;5021455;28;20536;-51
2021/11/10 10:06:34;;;;;;;1.07;0.53;;;;;;;5.74;100.00;101197.75;5027342;28;20456;-51
2021/11/10 10:09:02;;;;;;;1.43;1.33;;;;;;;5.58;100.00;101192.41;5028355;28;20468;-51
2021/11/10 10:11:29;;;;;;;0.30;0.20;;;;;;;5.63;100.00;101181.91;5022865;28;20514;-51
2021/11/10 10:13:56;;;;;;;0.30;0.20;;;;;;;5.57;100.00;101182.72;5020983;28;20571;-51
2021/11/10 10:16:26;;;;;;;0.30;0.20;;;;;;;5.90;100.00;101187.34;5026179;28;20453;-51
2021/11/10 10:19:08;;;;;;;0.30;0.30;;;;;;;5.83;100.00;101193.44;5027628;28;20997;-50
2021/11/10 10:21:41;;;;;;;0.30;0.20;;;;;;;5.86;100.00;101193.44;5026688;28;20447;-51
2021/11/10 10:24:14;;;;;;;0.30;0.13;;;;;;;6.06;100.00;101183.03;5021283;28;20455;-51
2021/11/10 10:26:41;;;;;;;0.30;0.20;;;;;;;5.82;100.00;101174.97;5021496;28;20575;-51
2021/11/10 10:29:10;;;;;;;0.30;0.20;;;;;;;6.23;100.00;101165.47;5027613;28;20851;-51
2021/11/10 10:31:41;;;;;;;0.27;0.20;;;;;;;6.14;100.00;101168.09;5020537;28;21025;-51
2021/11/10 10:34:15;;;;;;;1.70;1.60;;;;;;;6.09;100.00;101159.28;5026793;28;20492;-51
2021/11/10 10:36:45;;;;;;;0.30;0.20;;;;;;;5.95;100.00;101150.44;5027516;28;20452;-51
2021/11/10 10:39:18;;;;;;;1.90;1.90;;;;;;;5.95;100.00;101155.69;5024080;28;20503;-51
2021/11/10 10:41:55;;;;;;;0.27;0.20;;;;;;;5.87;100.00;101155.63;5020850;28;20448;-51
2021/11/10 10:44:27;;;;;;;0.30;0.10;;;;;;;5.82;100.00;101154.72;5022353;28;20444;-50
2021/11/10 10:46:59;;;;;;;0.77;0.77;;;;;;;5.82;100.00;101164.41;5027584;28;20472;-51
2021/11/10 10:49:33;;;;;;;0.30;0.20;;;;;;;5.99;100.00;101165.38;5027563;28;20889;-51
2021/11/10 10:52:18;;;;;;;0.27;0.20;;;;;;;5.97;100.00;101166.25;5009957;28;20452;-51
2021/11/10 10:54:48;;;;;;;0.27;0.17;;;;;;;6.14;100.00;101168.09;5019480;28;20487;-50
2021/11/10 10:57:19;;;;;;;0.70;0.60;;;;;;;6.19;100.00;101168.13;5022130;28;20518;-51
2021/11/10 10:59:46;;;;;;;0.30;0.20;;;;;;;6.18;100.00;101169.00;5027401;28;20453;-50
2021/11/10 11:02:13;;;;;;;0.30;0.20;;;;;;;6.36;100.00;101160.25;5025666;28;20818;-51
2021/11/10 11:04:45;;;;;;;0.30;0.20;;;;;;;6.17;100.00;101161.97;5020172;28;20867;-51
2021/11/10 11:07:12;;;;;;;0.30;0.20;;;;;;;6.10;100.00;101161.03;5021288;28;20498;-51
2021/11/10 11:09:50;;;;;;;0.37;0.37;;;;;;;6.53;100.00;101158.50;5026884;28;21024;-51
2021/11/10 11:12:31;;;;;;;0.30;0.20;;;;;;;5.98;100.00;101153.06;5027001;28;20498;-50
2021/11/10 11:15:24;;;;;;;0.73;0.73;;;;;;;6.11;100.00;101157.53;5023116;28;20491;-51
2021/11/10 11:17:56;;;;;;;0.30;0.20;;;;;;;6.18;100.00;101154.03;5019858;28;20467;-51
2021/11/10 11:20:32;;;;;;;0.30;0.20;;;;;;;6.19;100.00;101150.53;5020022;28;20992;-51
2021/11/10 11:23:00;;;;;;;0.30;0.20;;;;;;;6.11;100.00;101149.59;5024976;28;20453;-51
2021/11/10 11:25:34;;;;;;;0.30;0.20;;;;;;;6.24;100.00;101151.41;5025998;28;21290;-51
2021/11/10 11:28:07;;;;;;;0.30;0.20;;;;;;;6.11;100.00;101148.72;5023941;28;20468;-51
2021/11/10 11:30:55;;;;;;;0.30;0.13;;;;;;;6.20;100.00;101149.66;5020088;28;20885;-51
2021/11/10 11:33:25;;;;;;;3.83;3.03;;;;;;;6.60;100.00;101144.47;5021266;28;20646;-51